sensor_id;sensor_type;location;lat;lon;timestamp;P1;durP1;ratioP1;P2;durP2;ratioP2
13309;SDS011;6723;48.256;16.402;2022-12-29T00:05:01;26.27;;;14.47;;
13309;SDS011;6723;48.256;16.402;2022-12-29T00:07:27;20.93;;;13.60;;
13309;SDS011;6723;48.256;16.402;2022-12-29T00:09:53;16.60;;;11.50;;
13309;SDS011;6723;48.256;16.402;2022-12-29T00:12:19;17.47;;;12.30;;
13309;SDS011;6723;48.256;16.402;2022-12-29T00:14:45;17.90;;;12.57;;
13309;SDS011;6723;48.256;16.402;2022-12-29T00:17:29;18.43;;;12.50;;
13309;SDS011;6723;48.256;16.402;2022-12-29T00:19:55;17.27;;;12.10;;
13309;SDS011;6723;48.256;16.402;2022-12-29T00:22:39;20.37;;;12.23;;
13309;SDS011;6723;48.256;16.402;2022-12-29T00:25:23;15.10;;;10.83;;
13309;SDS011;6723;48.256;16.402;2022-12-29T00:28:08;14.60;;;10.70;;
13309;SDS011;6723;48.256;16.402;2022-12-29T00:30:53;16.33;;;11.17;;
13309;SDS011;6723;48.256;16.402;2022-12-29T00:33:37;15.20;;;10.93;;
13309;SDS011;6723;48.256;16.402;2022-12-29T00:36:24;14.97;;;10.77;;
13309;SDS011;6723;48.256;16.402;2022-12-29T00:39:00;15.07;;;11.17;;
13309;SDS011;6723;48.256;16.402;2022-12-29T00:42:02;15.07;;;10.50;;
13309;SDS011;6723;48.256;16.402;2022-12-29T00:45:04;14.93;;;10.10;;
13309;SDS011;6723;48.256;16.402;2022-12-29T00:47:30;15.47;;;9.83;;
13309;SDS011;6723;48.256;16.402;2022-12-29T00:49:56;14.13;;;9.67;;
13309;SDS011;6723;48.256;16.402;2022-12-29T00:52:22;12.57;;;9.43;;
13309;SDS011;6723;48.256;16.402;2022-12-29T00:54:47;14.17;;;9.37;;
13309;SDS011;6723;48.256;16.402;2022-12-29T00:57:13;12.90;;;9.50;;
13309;SDS011;6723;48.256;16.402;2022-12-29T00:59:40;14.97;;;9.77;;
13309;SDS011;6723;48.256;16.402;2022-12-29T01:02:08;13.53;;;9.53;;
13309;SDS011;6723;48.256;16.402;2022-12-29T01:04:35;14.43;;;9.63;;
13309;SDS011;6723;48.256;16.402;2022-12-29T01:07:01;15.30;;;9.87;;
13309;SDS011;6723;48.256;16.402;2022-12-29T01:09:27;12.57;;;9.27;;
13309;SDS011;6723;48.256;16.402;2022-12-29T01:12:11;14.03;;;10.17;;
13309;SDS011;6723;48.256;16.402;2022-12-29T01:14:37;16.03;;;10.37;;
13309;SDS011;6723;48.256;16.402;2022-12-29T01:17:06;12.33;;;9.10;;
13309;SDS011;6723;48.256;16.402;2022-12-29T01:19:32;13.90;;;10.00;;
13309;SDS011;6723;48.256;16.402;2022-12-29T01:21:58;13.80;;;9.90;;
13309;SDS011;6723;48.256;16.402;2022-12-29T01:24:24;17.23;;;9.60;;
13309;SDS011;6723;48.256;16.402;2022-12-29T01:26:51;14.30;;;9.70;;
13309;SDS011;6723;48.256;16.402;2022-12-29T01:29:17;12.80;;;9.20;;
13309;SDS011;6723;48.256;16.402;2022-12-29T01:31:43;14.47;;;9.37;;
13309;SDS011;6723;48.256;16.402;2022-12-29T01:34:09;13.33;;;9.83;;
13309;SDS011;6723;48.256;16.402;2022-12-29T01:36:34;13.27;;;9.40;;
13309;SDS011;6723;48.256;16.402;2022-12-29T01:39:00;13.97;;;9.83;;
13309;SDS011;6723;48.256;16.402;2022-12-29T01:41:26;15.57;;;9.30;;
13309;SDS011;6723;48.256;16.402;2022-12-29T01:43:57;14.27;;;10.10;;
13309;SDS011;6723;48.256;16.402;2022-12-29T01:46:41;14.50;;;10.13;;
13309;SDS011;6723;48.256;16.402;2022-12-29T01:52:02;14.57;;;9.47;;
13309;SDS011;6723;48.256;16.402;2022-12-29T01:54:36;12.73;;;9.80;;
13309;SDS011;6723;48.256;16.402;2022-12-29T01:57:11;13.43;;;10.10;;
13309;SDS011;6723;48.256;16.402;2022-12-29T01:59:41;14.30;;;10.10;;
13309;SDS011;6723;48.256;16.402;2022-12-29T02:02:12;13.87;;;9.30;;
13309;SDS011;6723;48.256;16.402;2022-12-29T02:04:39;13.10;;;9.43;;
13309;SDS011;6723;48.256;16.402;2022-12-29T02:07:17;13.87;;;9.87;;
13309;SDS011;6723;48.256;16.402;2022-12-29T02:09:48;14.70;;;10.27;;
13309;SDS011;6723;48.256;16.402;2022-12-29T02:12:16;14.50;;;9.87;;
13309;SDS011;6723;48.256;16.402;2022-12-29T02:14:43;15.23;;;9.70;;
13309;SDS011;6723;48.256;16.402;2022-12-29T02:17:19;14.53;;;9.90;;
13309;SDS011;6723;48.256;16.402;2022-12-29T02:25:35;14.33;;;9.60;;
13309;SDS011;6723;48.256;16.402;2022-12-29T02:36:39;13.47;;;9.73;;
13309;SDS011;6723;48.256;16.402;2022-12-29T02:45:08;13.70;;;9.50;;
13309;SDS011;6723;48.256;16.402;2022-12-29T02:50:33;14.23;;;10.00;;
13309;SDS011;6723;48.256;16.402;2022-12-29T02:53:11;15.00;;;9.80;;
13309;SDS011;6723;48.256;16.402;2022-12-29T02:55:39;13.43;;;9.30;;
13309;SDS011;6723;48.256;16.402;2022-12-29T03:00:38;14.37;;;10.23;;
13309;SDS011;6723;48.256;16.402;2022-12-29T03:03:20;14.70;;;9.87;;
13309;SDS011;6723;48.256;16.402;2022-12-29T03:06:08;16.23;;;9.50;;
13309;SDS011;6723;48.256;16.402;2022-12-29T03:08:55;14.03;;;9.83;;
13309;SDS011;6723;48.256;16.402;2022-12-29T03:11:48;15.60;;;9.50;;
13309;SDS011;6723;48.256;16.402;2022-12-29T03:14:35;14.23;;;9.57;;
13309;SDS011;6723;48.256;16.402;2022-12-29T03:17:43;13.40;;;9.30;;
13309;SDS011;6723;48.256;16.402;2022-12-29T03:20:14;14.37;;;9.87;;
13309;SDS011;6723;48.256;16.402;2022-12-29T03:22:47;15.60;;;9.60;;
13309;SDS011;6723;48.256;16.402;2022-12-29T03:25:24;15.70;;;9.57;;
13309;SDS011;6723;48.256;16.402;2022-12-29T03:28:01;13.80;;;9.97;;
13309;SDS011;6723;48.256;16.402;2022-12-29T03:30:34;15.47;;;9.40;;
13309;SDS011;6723;48.256;16.402;2022-12-29T03:33:03;14.20;;;9.60;;
13309;SDS011;6723;48.256;16.402;2022-12-29T03:35:32;17.00;;;9.90;;
13309;SDS011;6723;48.256;16.402;2022-12-29T03:38:14;15.43;;;9.93;;
13309;SDS011;6723;48.256;16.402;2022-12-29T03:40:42;13.57;;;9.30;;
13309;SDS011;6723;48.256;16.402;2022-12-29T03:43:12;14.20;;;9.60;;
13309;SDS011;6723;48.256;16.402;2022-12-29T03:45:39;14.10;;;9.77;;
13309;SDS011;6723;48.256;16.402;2022-12-29T03:48:05;15.43;;;9.73;;
13309;SDS011;6723;48.256;16.402;2022-12-29T03:50:31;13.30;;;9.60;;
13309;SDS011;6723;48.256;16.402;2022-12-29T03:52:57;16.37;;;10.97;;
13309;SDS011;6723;48.256;16.402;2022-12-29T03:55:23;14.50;;;10.20;;
13309;SDS011;6723;48.256;16.402;2022-12-29T03:57:48;16.17;;;9.97;;
13309;SDS011;6723;48.256;16.402;2022-12-29T04:00:14;13.13;;;10.03;;
13309;SDS011;6723;48.256;16.402;2022-12-29T04:02:40;14.07;;;9.60;;
13309;SDS011;6723;48.256;16.402;2022-12-29T04:05:06;13.87;;;9.90;;
13309;SDS011;6723;48.256;16.402;2022-12-29T04:07:32;15.93;;;9.97;;
13309;SDS011;6723;48.256;16.402;2022-12-29T04:09:58;13.87;;;10.13;;
13309;SDS011;6723;48.256;16.402;2022-12-29T04:12:24;14.17;;;10.10;;
13309;SDS011;6723;48.256;16.402;2022-12-29T04:14:49;13.07;;;9.50;;
13309;SDS011;6723;48.256;16.402;2022-12-29T04:17:15;13.40;;;9.83;;
13309;SDS011;6723;48.256;16.402;2022-12-29T04:19:41;13.33;;;9.93;;
13309;SDS011;6723;48.256;16.402;2022-12-29T04:22:07;13.63;;;10.20;;
13309;SDS011;6723;48.256;16.402;2022-12-29T04:24:32;14.83;;;10.13;;
13309;SDS011;6723;48.256;16.402;2022-12-29T04:26:58;13.67;;;9.83;;
13309;SDS011;6723;48.256;16.402;2022-12-29T04:29:24;14.27;;;9.80;;
13309;SDS011;6723;48.256;16.402;2022-12-29T04:31:50;12.83;;;9.80;;
13309;SDS011;6723;48.256;16.402;2022-12-29T04:34:15;13.80;;;10.53;;
13309;SDS011;6723;48.256;16.402;2022-12-29T04:36:41;14.90;;;10.03;;
13309;SDS011;6723;48.256;16.402;2022-12-29T04:39:07;13.30;;;9.97;;
13309;SDS011;6723;48.256;16.402;2022-12-29T04:41:33;13.20;;;9.67;;
13309;SDS011;6723;48.256;16.402;2022-12-29T04:43:58;13.53;;;9.30;;
13309;SDS011;6723;48.256;16.402;2022-12-29T04:46:24;12.13;;;9.27;;
13309;SDS011;6723;48.256;16.402;2022-12-29T04:48:50;15.27;;;10.30;;
13309;SDS011;6723;48.256;16.402;2022-12-29T04:51:18;14.40;;;9.87;;
13309;SDS011;6723;48.256;16.402;2022-12-29T04:53:44;16.00;;;9.83;;
13309;SDS011;6723;48.256;16.402;2022-12-29T04:56:10;13.57;;;9.80;;
13309;SDS011;6723;48.256;16.402;2022-12-29T04:58:36;14.00;;;10.20;;
13309;SDS011;6723;48.256;16.402;2022-12-29T05:01:02;12.53;;;9.50;;
13309;SDS011;6723;48.256;16.402;2022-12-29T05:03:28;15.20;;;10.07;;
13309;SDS011;6723;48.256;16.402;2022-12-29T05:05:54;14.73;;;10.40;;
13309;SDS011;6723;48.256;16.402;2022-12-29T05:08:21;13.63;;;10.17;;
13309;SDS011;6723;48.256;16.402;2022-12-29T05:10:47;16.27;;;9.40;;
13309;SDS011;6723;48.256;16.402;2022-12-29T05:13:15;13.17;;;9.93;;
13309;SDS011;6723;48.256;16.402;2022-12-29T05:15:45;14.83;;;10.67;;
13309;SDS011;6723;48.256;16.402;2022-12-29T05:18:16;14.23;;;10.17;;
13309;SDS011;6723;48.256;16.402;2022-12-29T05:20:42;14.70;;;10.17;;
13309;SDS011;6723;48.256;16.402;2022-12-29T05:23:08;14.43;;;10.13;;
13309;SDS011;6723;48.256;16.402;2022-12-29T05:25:34;14.40;;;10.23;;
13309;SDS011;6723;48.256;16.402;2022-12-29T05:28:00;15.23;;;10.30;;
13309;SDS011;6723;48.256;16.402;2022-12-29T05:30:26;13.67;;;9.63;;
13309;SDS011;6723;48.256;16.402;2022-12-29T05:32:51;21.17;;;15.50;;
13309;SDS011;6723;48.256;16.402;2022-12-29T05:35:17;20.03;;;13.17;;
13309;SDS011;6723;48.256;16.402;2022-12-29T05:37:43;15.03;;;9.93;;
13309;SDS011;6723;48.256;16.402;2022-12-29T05:40:09;14.00;;;10.07;;
13309;SDS011;6723;48.256;16.402;2022-12-29T05:42:36;12.63;;;9.63;;
13309;SDS011;6723;48.256;16.402;2022-12-29T05:45:01;12.60;;;9.80;;
13309;SDS011;6723;48.256;16.402;2022-12-29T05:47:27;15.63;;;10.20;;
13309;SDS011;6723;48.256;16.402;2022-12-29T05:49:53;14.60;;;9.93;;
13309;SDS011;6723;48.256;16.402;2022-12-29T05:52:19;15.87;;;10.77;;
13309;SDS011;6723;48.256;16.402;2022-12-29T05:54:44;16.37;;;10.53;;
13309;SDS011;6723;48.256;16.402;2022-12-29T05:57:10;14.93;;;10.33;;
13309;SDS011;6723;48.256;16.402;2022-12-29T05:59:36;17.73;;;11.33;;
13309;SDS011;6723;48.256;16.402;2022-12-29T06:02:02;18.83;;;11.57;;
13309;SDS011;6723;48.256;16.402;2022-12-29T06:04:28;17.00;;;10.93;;
13309;SDS011;6723;48.256;16.402;2022-12-29T06:06:53;18.27;;;11.37;;
13309;SDS011;6723;48.256;16.402;2022-12-29T06:09:19;21.53;;;13.30;;
13309;SDS011;6723;48.256;16.402;2022-12-29T06:11:45;22.73;;;13.27;;
13309;SDS011;6723;48.256;16.402;2022-12-29T06:14:11;21.53;;;12.27;;
13309;SDS011;6723;48.256;16.402;2022-12-29T06:16:36;20.90;;;12.13;;
13309;SDS011;6723;48.256;16.402;2022-12-29T06:19:02;18.37;;;11.60;;
13309;SDS011;6723;48.256;16.402;2022-12-29T06:21:28;16.63;;;11.30;;
13309;SDS011;6723;48.256;16.402;2022-12-29T06:23:54;18.23;;;12.27;;
13309;SDS011;6723;48.256;16.402;2022-12-29T06:26:19;21.47;;;13.07;;
13309;SDS011;6723;48.256;16.402;2022-12-29T06:28:45;23.73;;;13.37;;
13309;SDS011;6723;48.256;16.402;2022-12-29T06:31:11;20.97;;;12.87;;
13309;SDS011;6723;48.256;16.402;2022-12-29T06:33:37;22.43;;;13.00;;
13309;SDS011;6723;48.256;16.402;2022-12-29T06:36:03;18.87;;;12.60;;
13309;SDS011;6723;48.256;16.402;2022-12-29T06:38:29;23.87;;;14.50;;
13309;SDS011;6723;48.256;16.402;2022-12-29T06:40:55;23.40;;;14.10;;
13309;SDS011;6723;48.256;16.402;2022-12-29T06:43:21;24.57;;;13.97;;
13309;SDS011;6723;48.256;16.402;2022-12-29T06:45:47;23.73;;;14.30;;
13309;SDS011;6723;48.256;16.402;2022-12-29T06:48:13;23.03;;;14.27;;
13309;SDS011;6723;48.256;16.402;2022-12-29T06:50:38;23.93;;;14.03;;
13309;SDS011;6723;48.256;16.402;2022-12-29T06:53:04;23.27;;;14.73;;
13309;SDS011;6723;48.256;16.402;2022-12-29T06:55:30;23.03;;;14.03;;
13309;SDS011;6723;48.256;16.402;2022-12-29T06:57:56;25.87;;;14.80;;
13309;SDS011;6723;48.256;16.402;2022-12-29T07:00:23;23.40;;;14.77;;
13309;SDS011;6723;48.256;16.402;2022-12-29T07:02:50;24.13;;;14.37;;
13309;SDS011;6723;48.256;16.402;2022-12-29T07:05:16;26.97;;;16.20;;
13309;SDS011;6723;48.256;16.402;2022-12-29T07:07:42;24.03;;;15.30;;
13309;SDS011;6723;48.256;16.402;2022-12-29T07:10:08;25.87;;;15.53;;
13309;SDS011;6723;48.256;16.402;2022-12-29T07:12:34;26.40;;;16.40;;
13309;SDS011;6723;48.256;16.402;2022-12-29T07:15:00;22.73;;;15.40;;
13309;SDS011;6723;48.256;16.402;2022-12-29T07:17:26;24.47;;;15.10;;
13309;SDS011;6723;48.256;16.402;2022-12-29T07:19:51;26.77;;;15.17;;
13309;SDS011;6723;48.256;16.402;2022-12-29T07:22:17;22.43;;;15.10;;
13309;SDS011;6723;48.256;16.402;2022-12-29T07:24:45;27.23;;;16.00;;
13309;SDS011;6723;48.256;16.402;2022-12-29T07:27:11;26.30;;;14.73;;
13309;SDS011;6723;48.256;16.402;2022-12-29T07:29:37;26.23;;;15.33;;
13309;SDS011;6723;48.256;16.402;2022-12-29T07:32:03;24.63;;;15.43;;
13309;SDS011;6723;48.256;16.402;2022-12-29T07:34:29;23.90;;;14.53;;
13309;SDS011;6723;48.256;16.402;2022-12-29T07:36:55;23.23;;;15.10;;
13309;SDS011;6723;48.256;16.402;2022-12-29T07:39:21;26.33;;;15.00;;
13309;SDS011;6723;48.256;16.402;2022-12-29T07:41:46;22.57;;;14.27;;
13309;SDS011;6723;48.256;16.402;2022-12-29T07:44:12;27.93;;;15.43;;
13309;SDS011;6723;48.256;16.402;2022-12-29T07:46:38;28.17;;;16.47;;
13309;SDS011;6723;48.256;16.402;2022-12-29T07:49:03;27.90;;;16.67;;
13309;SDS011;6723;48.256;16.402;2022-12-29T07:51:29;24.30;;;14.73;;
13309;SDS011;6723;48.256;16.402;2022-12-29T07:53:56;27.00;;;16.10;;
13309;SDS011;6723;48.256;16.402;2022-12-29T07:56:24;26.10;;;13.90;;
13309;SDS011;6723;48.256;16.402;2022-12-29T07:58:50;25.80;;;14.87;;
13309;SDS011;6723;48.256;16.402;2022-12-29T08:01:15;27.33;;;17.00;;
13309;SDS011;6723;48.256;16.402;2022-12-29T08:03:41;30.47;;;17.17;;
13309;SDS011;6723;48.256;16.402;2022-12-29T08:06:09;23.80;;;13.90;;
13309;SDS011;6723;48.256;16.402;2022-12-29T08:08:36;25.03;;;14.83;;
13309;SDS011;6723;48.256;16.402;2022-12-29T08:11:01;24.17;;;15.03;;
13309;SDS011;6723;48.256;16.402;2022-12-29T08:13:28;28.03;;;17.03;;
13309;SDS011;6723;48.256;16.402;2022-12-29T08:15:57;26.10;;;14.87;;
13309;SDS011;6723;48.256;16.402;2022-12-29T08:18:24;26.77;;;14.73;;
13309;SDS011;6723;48.256;16.402;2022-12-29T08:20:50;27.70;;;15.77;;
13309;SDS011;6723;48.256;16.402;2022-12-29T08:23:16;29.63;;;16.00;;
13309;SDS011;6723;48.256;16.402;2022-12-29T08:25:41;33.33;;;17.77;;
13309;SDS011;6723;48.256;16.402;2022-12-29T08:28:07;28.20;;;15.97;;
13309;SDS011;6723;48.256;16.402;2022-12-29T08:30:33;32.63;;;16.97;;
13309;SDS011;6723;48.256;16.402;2022-12-29T08:33:01;28.00;;;16.33;;
13309;SDS011;6723;48.256;16.402;2022-12-29T08:35:27;31.57;;;17.47;;
13309;SDS011;6723;48.256;16.402;2022-12-29T08:37:55;26.63;;;15.70;;
13309;SDS011;6723;48.256;16.402;2022-12-29T08:40:21;31.57;;;17.10;;
13309;SDS011;6723;48.256;16.402;2022-12-29T08:42:49;26.30;;;14.13;;
13309;SDS011;6723;48.256;16.402;2022-12-29T08:45:15;30.00;;;17.67;;
13309;SDS011;6723;48.256;16.402;2022-12-29T08:47:41;31.23;;;16.83;;
13309;SDS011;6723;48.256;16.402;2022-12-29T08:50:07;32.23;;;17.17;;
13309;SDS011;6723;48.256;16.402;2022-12-29T08:52:33;26.93;;;15.53;;
13309;SDS011;6723;48.256;16.402;2022-12-29T08:54:59;29.83;;;16.73;;
13309;SDS011;6723;48.256;16.402;2022-12-29T08:57:27;34.73;;;18.50;;
13309;SDS011;6723;48.256;16.402;2022-12-29T08:59:53;28.70;;;15.43;;
13309;SDS011;6723;48.256;16.402;2022-12-29T09:02:18;33.13;;;17.83;;
13309;SDS011;6723;48.256;16.402;2022-12-29T09:04:44;29.03;;;15.83;;
13309;SDS011;6723;48.256;16.402;2022-12-29T09:07:10;29.43;;;16.87;;
13309;SDS011;6723;48.256;16.402;2022-12-29T09:09:35;36.37;;;16.50;;
13309;SDS011;6723;48.256;16.402;2022-12-29T09:12:01;27.00;;;13.90;;
13309;SDS011;6723;48.256;16.402;2022-12-29T09:14:27;27.00;;;15.13;;
13309;SDS011;6723;48.256;16.402;2022-12-29T09:16:53;29.33;;;16.33;;
13309;SDS011;6723;48.256;16.402;2022-12-29T09:19:38;29.80;;;16.73;;
13309;SDS011;6723;48.256;16.402;2022-12-29T09:22:04;32.80;;;16.53;;
13309;SDS011;6723;48.256;16.402;2022-12-29T09:24:33;28.00;;;15.33;;
13309;SDS011;6723;48.256;16.402;2022-12-29T09:26:59;28.70;;;15.70;;
13309;SDS011;6723;48.256;16.402;2022-12-29T09:29:25;28.07;;;16.10;;
13309;SDS011;6723;48.256;16.402;2022-12-29T09:31:50;32.27;;;17.60;;
13309;SDS011;6723;48.256;16.402;2022-12-29T09:34:16;34.20;;;16.83;;
13309;SDS011;6723;48.256;16.402;2022-12-29T09:36:42;37.03;;;18.03;;
13309;SDS011;6723;48.256;16.402;2022-12-29T09:39:08;30.47;;;17.07;;
13309;SDS011;6723;48.256;16.402;2022-12-29T09:41:39;46.70;;;17.13;;
13309;SDS011;6723;48.256;16.402;2022-12-29T09:44:23;37.10;;;18.40;;
13309;SDS011;6723;48.256;16.402;2022-12-29T09:46:56;33.53;;;16.80;;
13309;SDS011;6723;48.256;16.402;2022-12-29T09:52:08;35.00;;;17.70;;
13309;SDS011;6723;48.256;16.402;2022-12-29T09:54:53;32.57;;;18.20;;
13309;SDS011;6723;48.256;16.402;2022-12-29T09:57:27;35.10;;;16.53;;
13309;SDS011;6723;48.256;16.402;2022-12-29T09:59:58;31.33;;;16.33;;
13309;SDS011;6723;48.256;16.402;2022-12-29T10:05:26;35.30;;;18.17;;
13309;SDS011;6723;48.256;16.402;2022-12-29T10:08:09;33.87;;;18.33;;
13309;SDS011;6723;48.256;16.402;2022-12-29T10:10:40;33.53;;;16.70;;
13309;SDS011;6723;48.256;16.402;2022-12-29T10:15:54;38.23;;;18.13;;
13309;SDS011;6723;48.256;16.402;2022-12-29T10:24:15;39.07;;;19.70;;
13309;SDS011;6723;48.256;16.402;2022-12-29T10:26:44;35.27;;;19.77;;
13309;SDS011;6723;48.256;16.402;2022-12-29T10:29:20;46.83;;;20.17;;
13309;SDS011;6723;48.256;16.402;2022-12-29T10:32:03;36.80;;;19.93;;
13309;SDS011;6723;48.256;16.402;2022-12-29T10:34:40;35.47;;;19.17;;
13309;SDS011;6723;48.256;16.402;2022-12-29T10:39:58;37.90;;;20.50;;
13309;SDS011;6723;48.256;16.402;2022-12-29T10:42:33;35.33;;;19.80;;
13309;SDS011;6723;48.256;16.402;2022-12-29T10:45:02;36.00;;;19.87;;
13309;SDS011;6723;48.256;16.402;2022-12-29T10:47:32;37.43;;;21.03;;
13309;SDS011;6723;48.256;16.402;2022-12-29T10:50:01;35.87;;;20.60;;
13309;SDS011;6723;48.256;16.402;2022-12-29T10:52:28;40.73;;;22.53;;
13309;SDS011;6723;48.256;16.402;2022-12-29T10:57:26;40.63;;;22.53;;
13309;SDS011;6723;48.256;16.402;2022-12-29T10:59:58;40.10;;;21.73;;
13309;SDS011;6723;48.256;16.402;2022-12-29T11:08:35;37.10;;;22.27;;
13309;SDS011;6723;48.256;16.402;2022-12-29T11:11:05;38.93;;;22.47;;
13309;SDS011;6723;48.256;16.402;2022-12-29T11:13:34;40.90;;;22.93;;
13309;SDS011;6723;48.256;16.402;2022-12-29T11:16:11;39.97;;;22.50;;
13309;SDS011;6723;48.256;16.402;2022-12-29T11:18:38;39.73;;;22.50;;
13309;SDS011;6723;48.256;16.402;2022-12-29T11:21:06;38.87;;;22.13;;
13309;SDS011;6723;48.256;16.402;2022-12-29T11:26:53;39.63;;;22.17;;
13309;SDS011;6723;48.256;16.402;2022-12-29T11:29:41;40.50;;;22.47;;
13309;SDS011;6723;48.256;16.402;2022-12-29T11:32:13;41.77;;;23.17;;
13309;SDS011;6723;48.256;16.402;2022-12-29T11:34:42;39.87;;;23.03;;
13309;SDS011;6723;48.256;16.402;2022-12-29T11:39:58;43.80;;;22.97;;
13309;SDS011;6723;48.256;16.402;2022-12-29T11:45:31;40.93;;;22.73;;
13309;SDS011;6723;48.256;16.402;2022-12-29T11:48:07;39.80;;;22.53;;
13309;SDS011;6723;48.256;16.402;2022-12-29T11:50:34;45.10;;;25.03;;
13309;SDS011;6723;48.256;16.402;2022-12-29T11:53:23;37.83;;;23.53;;
13309;SDS011;6723;48.256;16.402;2022-12-29T11:58:18;43.00;;;22.93;;
13309;SDS011;6723;48.256;16.402;2022-12-29T12:00:44;38.20;;;22.07;;
13309;SDS011;6723;48.256;16.402;2022-12-29T12:05:45;38.60;;;23.10;;
13309;SDS011;6723;48.256;16.402;2022-12-29T12:08:22;43.70;;;23.77;;
13309;SDS011;6723;48.256;16.402;2022-12-29T12:11:15;41.47;;;22.67;;
13309;SDS011;6723;48.256;16.402;2022-12-29T12:14:14;39.17;;;21.53;;
13309;SDS011;6723;48.256;16.402;2022-12-29T12:17:17;41.60;;;22.73;;
13309;SDS011;6723;48.256;16.402;2022-12-29T12:19:53;39.17;;;21.77;;
13309;SDS011;6723;48.256;16.402;2022-12-29T12:25:21;40.90;;;22.47;;
13309;SDS011;6723;48.256;16.402;2022-12-29T12:28:06;37.37;;;20.57;;
13309;SDS011;6723;48.256;16.402;2022-12-29T12:30:40;39.67;;;22.40;;
13309;SDS011;6723;48.256;16.402;2022-12-29T12:33:28;36.70;;;20.43;;
13309;SDS011;6723;48.256;16.402;2022-12-29T12:41:08;37.60;;;21.97;;
13309;SDS011;6723;48.256;16.402;2022-12-29T12:57:33;34.63;;;20.87;;
13309;SDS011;6723;48.256;16.402;2022-12-29T13:00:14;36.13;;;21.93;;
13309;SDS011;6723;48.256;16.402;2022-12-29T13:14:04;31.47;;;21.17;;
13309;SDS011;6723;48.256;16.402;2022-12-29T13:19:30;32.67;;;20.50;;
13309;SDS011;6723;48.256;16.402;2022-12-29T13:24:32;31.97;;;20.50;;
13309;SDS011;6723;48.256;16.402;2022-12-29T13:30:05;35.60;;;21.87;;
13309;SDS011;6723;48.256;16.402;2022-12-29T13:32:54;35.20;;;22.03;;
13309;SDS011;6723;48.256;16.402;2022-12-29T13:40:45;33.63;;;20.90;;
13309;SDS011;6723;48.256;16.402;2022-12-29T13:43:20;33.67;;;22.73;;
13309;SDS011;6723;48.256;16.402;2022-12-29T13:46:01;34.00;;;21.80;;
13309;SDS011;6723;48.256;16.402;2022-12-29T13:48:36;38.30;;;22.30;;
13309;SDS011;6723;48.256;16.402;2022-12-29T13:51:26;33.00;;;21.20;;
13309;SDS011;6723;48.256;16.402;2022-12-29T14:01:48;31.43;;;20.80;;
13309;SDS011;6723;48.256;16.402;2022-12-29T14:04:26;31.27;;;19.70;;
13309;SDS011;6723;48.256;16.402;2022-12-29T14:07:00;33.70;;;20.47;;
13309;SDS011;6723;48.256;16.402;2022-12-29T14:12:30;34.40;;;21.90;;
13309;SDS011;6723;48.256;16.402;2022-12-29T14:17:36;31.73;;;20.00;;
13309;SDS011;6723;48.256;16.402;2022-12-29T14:20:03;31.90;;;21.07;;
13309;SDS011;6723;48.256;16.402;2022-12-29T14:22:55;33.03;;;21.30;;
13309;SDS011;6723;48.256;16.402;2022-12-29T14:28:24;32.03;;;20.57;;
13309;SDS011;6723;48.256;16.402;2022-12-29T14:31:40;34.23;;;21.03;;
13309;SDS011;6723;48.256;16.402;2022-12-29T14:33:41;33.67;;;20.93;;
13309;SDS011;6723;48.256;16.402;2022-12-29T14:36:29;32.07;;;21.07;;
13309;SDS011;6723;48.256;16.402;2022-12-29T14:38:58;34.47;;;22.20;;
13309;SDS011;6723;48.256;16.402;2022-12-29T14:41:40;35.40;;;22.37;;
13309;SDS011;6723;48.256;16.402;2022-12-29T14:49:22;34.87;;;20.93;;
13309;SDS011;6723;48.256;16.402;2022-12-29T14:51:54;34.73;;;21.77;;
13309;SDS011;6723;48.256;16.402;2022-12-29T14:56:59;33.97;;;20.93;;
13309;SDS011;6723;48.256;16.402;2022-12-29T14:59:27;36.03;;;22.53;;
13309;SDS011;6723;48.256;16.402;2022-12-29T15:01:55;33.33;;;20.30;;
13309;SDS011;6723;48.256;16.402;2022-12-29T15:04:23;34.27;;;21.63;;
13309;SDS011;6723;48.256;16.402;2022-12-29T15:06:59;38.30;;;21.93;;
13309;SDS011;6723;48.256;16.402;2022-12-29T15:09:39;36.43;;;22.00;;
13309;SDS011;6723;48.256;16.402;2022-12-29T15:14:58;37.67;;;22.13;;
13309;SDS011;6723;48.256;16.402;2022-12-29T15:17:29;32.67;;;20.37;;
13309;SDS011;6723;48.256;16.402;2022-12-29T15:20:00;38.57;;;22.50;;
13309;SDS011;6723;48.256;16.402;2022-12-29T15:22:43;37.10;;;22.50;;
13309;SDS011;6723;48.256;16.402;2022-12-29T15:25:15;38.17;;;22.83;;
13309;SDS011;6723;48.256;16.402;2022-12-29T15:27:42;38.00;;;21.83;;
13309;SDS011;6723;48.256;16.402;2022-12-29T15:30:15;36.33;;;21.23;;
13309;SDS011;6723;48.256;16.402;2022-12-29T15:32:42;40.50;;;23.57;;
13309;SDS011;6723;48.256;16.402;2022-12-29T15:37:53;37.80;;;22.83;;
13309;SDS011;6723;48.256;16.402;2022-12-29T15:40:23;37.60;;;22.57;;
13309;SDS011;6723;48.256;16.402;2022-12-29T15:45:47;39.77;;;22.87;;
13309;SDS011;6723;48.256;16.402;2022-12-29T15:48:18;36.70;;;23.30;;
13309;SDS011;6723;48.256;16.402;2022-12-29T15:50:46;37.33;;;23.80;;
13309;SDS011;6723;48.256;16.402;2022-12-29T15:53:31;40.03;;;24.30;;
13309;SDS011;6723;48.256;16.402;2022-12-29T15:56:02;44.40;;;23.93;;
13309;SDS011;6723;48.256;16.402;2022-12-29T15:58:39;37.67;;;23.63;;
13309;SDS011;6723;48.256;16.402;2022-12-29T16:01:17;38.47;;;22.43;;
13309;SDS011;6723;48.256;16.402;2022-12-29T16:03:58;38.83;;;24.40;;
13309;SDS011;6723;48.256;16.402;2022-12-29T16:06:27;39.63;;;23.67;;
13309;SDS011;6723;48.256;16.402;2022-12-29T16:14:00;40.50;;;24.10;;
13309;SDS011;6723;48.256;16.402;2022-12-29T16:16:31;39.40;;;23.77;;
13309;SDS011;6723;48.256;16.402;2022-12-29T16:19:09;41.60;;;24.40;;
13309;SDS011;6723;48.256;16.402;2022-12-29T16:21:45;44.50;;;25.33;;
13309;SDS011;6723;48.256;16.402;2022-12-29T16:24:13;39.80;;;23.83;;
13309;SDS011;6723;48.256;16.402;2022-12-29T16:26:46;39.60;;;24.10;;
13309;SDS011;6723;48.256;16.402;2022-12-29T16:29:32;44.60;;;25.73;;
13309;SDS011;6723;48.256;16.402;2022-12-29T16:32:00;42.17;;;25.37;;
13309;SDS011;6723;48.256;16.402;2022-12-29T16:34:33;43.60;;;24.53;;
13309;SDS011;6723;48.256;16.402;2022-12-29T16:39:48;40.73;;;23.80;;
13309;SDS011;6723;48.256;16.402;2022-12-29T16:47:46;41.90;;;24.37;;
13309;SDS011;6723;48.256;16.402;2022-12-29T16:50:36;36.97;;;23.23;;
13309;SDS011;6723;48.256;16.402;2022-12-29T16:53:05;38.87;;;24.43;;
13309;SDS011;6723;48.256;16.402;2022-12-29T16:55:45;39.47;;;24.17;;
13309;SDS011;6723;48.256;16.402;2022-12-29T17:00:46;40.17;;;24.40;;
13309;SDS011;6723;48.256;16.402;2022-12-29T17:03:12;40.00;;;23.67;;
13309;SDS011;6723;48.256;16.402;2022-12-29T17:05:39;40.17;;;23.90;;
13309;SDS011;6723;48.256;16.402;2022-12-29T17:08:17;39.77;;;24.37;;
13309;SDS011;6723;48.256;16.402;2022-12-29T17:10:49;38.07;;;24.07;;
13309;SDS011;6723;48.256;16.402;2022-12-29T17:13:38;39.87;;;23.97;;
13309;SDS011;6723;48.256;16.402;2022-12-29T17:16:08;42.30;;;24.37;;
13309;SDS011;6723;48.256;16.402;2022-12-29T17:18:36;38.93;;;24.27;;
13309;SDS011;6723;48.256;16.402;2022-12-29T17:21:03;39.27;;;24.37;;
13309;SDS011;6723;48.256;16.402;2022-12-29T17:23:29;40.23;;;25.00;;
13309;SDS011;6723;48.256;16.402;2022-12-29T17:25:58;42.73;;;27.30;;
13309;SDS011;6723;48.256;16.402;2022-12-29T17:28:25;47.13;;;27.30;;
13309;SDS011;6723;48.256;16.402;2022-12-29T17:31:00;41.63;;;25.70;;